Cherry Capital Airport
KTVC : rendu visible

Aérodrome :











RETROUVEZ-NOUS SUR...

 
LOGIN :

S'inscrire | Disclaimer

   EN    FR    IT 

 









Légende :    VFR   VFR Marginal   IFR   IFR Intensif   IFR Très Intensif
Visi : 
Plafond : 
>= 8 km
>= 3000ft
5 à 8 km
1000 à 3000 ft
1500m à 5 km
500 à 1000 ft
800 à 1500m
200 à 500 ft
< 800m
< 200 ft
Symboles :   Orages  Brouillard  Fortes neiges  Fortes précipitations  Vent > 20 kt






- Altitude de l'aérodrome : 624 ft
- Code IATA : TVC


KTVC - Cherry Capital

DERNIER METAR :
  • 210753Z AUTO VRB04KT 8SM OVC100 04/02 A2998 RMK AO2 SLP159 T00440017

METARs EXPIRÉS :
  • 210653Z AUTO 17003KT 7SM OVC100 04/02 A3002 RMK AO2 SLP170 T00440017
  • 210553Z AUTO 17004KT 6SM BR BKN120 04/02 A3004 RMK AO2 SLP179 T00390017 10044 20017 58026

TAF KTVC
Valide du 21 à 06h jusqu'au 22 à 06h UTC


210616Z 2106/2206 VRB03KT 6SM BR OVC100
FM211000 16010G20KT P6SM VCSH OVC090 WS015/19040KT
FM211200 16012G20KT 5SM RA BR OVC027 WS012/19045KT
FM211600 18015KT 3SM RA BR OVC010 WS010/19045KT
FM211800 20013KT 2SM -RA BR OVC006
FM212100 26008KT 1SM -SHRA BR OVC005
FM220100 32010G24KT P6SM -SHRA OVC011



MET'MAP, la Météo Aéronautique d'un coup d'oeil ! - Copyright ORBIFLY Décembre 2007 - Disclaimer

ORBIFLY MET'MAP TEAM :

Programmation & Développement : Alexandra Zaïnal
Conception & Développement : Baudouin d'Aumeries
Co-Programmation & Développement : Marc-Olivier Méhu
Soutien technique & logistique : Manuel Goepfert

Contact : metmap@orbifly.com




SOURCES & CREDITS :

   NOAA       Earth
Advisory